sensor_id;sensor_type;location;lat;lon;timestamp;temperature;humidity
3678;DHT22;1855;50.934;6.958;2023-02-01T00:01:06;6.70;99.90
3678;DHT22;1855;50.934;6.958;2023-02-01T00:03:33;6.60;99.90
3678;DHT22;1855;50.934;6.958;2023-02-01T00:06:00;6.50;99.90
3678;DHT22;1855;50.934;6.958;2023-02-01T00:08:27;6.50;99.90
3678;DHT22;1855;50.934;6.958;2023-02-01T00:11:02;6.50;99.90
3678;DHT22;1855;50.934;6.958;2023-02-01T00:13:30;6.30;99.90
3678;DHT22;1855;50.934;6.958;2023-02-01T00:16:03;6.30;99.90
3678;DHT22;1855;50.934;6.958;2023-02-01T00:18:30;6.20;99.90
3678;DHT22;1855;50.934;6.958;2023-02-01T00:20:56;6.20;99.90
3678;DHT22;1855;50.934;6.958;2023-02-01T00:23:24;6.20;99.90
3678;DHT22;1855;50.934;6.958;2023-02-01T00:25:51;6.10;99.90
3678;DHT22;1855;50.934;6.958;2023-02-01T00:28:19;6.10;99.90
3678;DHT22;1855;50.934;6.958;2023-02-01T00:30:45;6.00;99.90
3678;DHT22;1855;50.934;6.958;2023-02-01T00:33:12;6.00;99.90
3678;DHT22;1855;50.934;6.958;2023-02-01T00:35:39;6.00;99.90
3678;DHT22;1855;50.934;6.958;2023-02-01T00:38:06;6.00;99.90
3678;DHT22;1855;50.934;6.958;2023-02-01T00:40:32;6.00;99.90
3678;DHT22;1855;50.934;6.958;2023-02-01T00:42:59;6.00;99.90
3678;DHT22;1855;50.934;6.958;2023-02-01T00:45:27;6.00;99.90
3678;DHT22;1855;50.934;6.958;2023-02-01T00:47:54;6.10;99.90
3678;DHT22;1855;50.934;6.958;2023-02-01T00:50:21;6.10;99.90
3678;DHT22;1855;50.934;6.958;2023-02-01T00:52:47;6.10;99.90
3678;DHT22;1855;50.934;6.958;2023-02-01T00:55:14;6.20;99.90
3678;DHT22;1855;50.934;6.958;2023-02-01T00:57:41;6.20;99.90
3678;DHT22;1855;50.934;6.958;2023-02-01T01:00:09;6.30;99.90
3678;DHT22;1855;50.934;6.958;2023-02-01T01:02:37;6.30;99.90
3678;DHT22;1855;50.934;6.958;2023-02-01T01:05:04;6.30;99.90
3678;DHT22;1855;50.934;6.958;2023-02-01T01:07:31;6.30;99.90
3678;DHT22;1855;50.934;6.958;2023-02-01T01:09:57;6.30;99.90
3678;DHT22;1855;50.934;6.958;2023-02-01T01:12:24;6.30;99.90
3678;DHT22;1855;50.934;6.958;2023-02-01T01:14:51;6.30;99.90
3678;DHT22;1855;50.934;6.958;2023-02-01T01:17:18;6.30;99.90
3678;DHT22;1855;50.934;6.958;2023-02-01T01:19:46;6.30;99.90
3678;DHT22;1855;50.934;6.958;2023-02-01T01:22:12;6.30;99.90
3678;DHT22;1855;50.934;6.958;2023-02-01T01:24:39;6.30;99.90
3678;DHT22;1855;50.934;6.958;2023-02-01T01:27:06;6.30;99.90
3678;DHT22;1855;50.934;6.958;2023-02-01T01:29:32;6.30;99.90
3678;DHT22;1855;50.934;6.958;2023-02-01T01:31:59;6.30;99.80
3678;DHT22;1855;50.934;6.958;2023-02-01T01:34:26;6.30;99.60
3678;DHT22;1855;50.934;6.958;2023-02-01T01:36:54;6.30;99.40
3678;DHT22;1855;50.934;6.958;2023-02-01T01:39:21;6.20;99.20
3678;DHT22;1855;50.934;6.958;2023-02-01T01:41:47;6.20;98.60
3678;DHT22;1855;50.934;6.958;2023-02-01T01:44:58;6.20;98.40
3678;DHT22;1855;50.934;6.958;2023-02-01T01:47:26;6.20;98.70
3678;DHT22;1855;50.934;6.958;2023-02-01T01:49:53;6.10;98.80
3678;DHT22;1855;50.934;6.958;2023-02-01T01:52:23;6.10;98.60
3678;DHT22;1855;50.934;6.958;2023-02-01T01:54:53;6.00;99.00
3678;DHT22;1855;50.934;6.958;2023-02-01T01:57:23;5.90;99.30
3678;DHT22;1855;50.934;6.958;2023-02-01T01:59:58;5.90;99.20
3678;DHT22;1855;50.934;6.958;2023-02-01T02:02:27;5.90;99.30
3678;DHT22;1855;50.934;6.958;2023-02-01T02:04:54;5.90;99.50
3678;DHT22;1855;50.934;6.958;2023-02-01T02:07:26;5.90;99.50
3678;DHT22;1855;50.934;6.958;2023-02-01T02:09:55;5.90;99.50
3678;DHT22;1855;50.934;6.958;2023-02-01T02:12:22;6.00;99.20
3678;DHT22;1855;50.934;6.958;2023-02-01T02:14:49;6.00;99.10
3678;DHT22;1855;50.934;6.958;2023-02-01T02:17:29;6.00;99.40
3678;DHT22;1855;50.934;6.958;2023-02-01T02:20:20;6.00;99.50
3678;DHT22;1855;50.934;6.958;2023-02-01T02:23:31;6.00;99.50
3678;DHT22;1855;50.934;6.958;2023-02-01T02:26:23;6.00;99.80
3678;DHT22;1855;50.934;6.958;2023-02-01T02:34:50;6.10;99.50
3678;DHT22;1855;50.934;6.958;2023-02-01T02:37:24;6.00;99.40
3678;DHT22;1855;50.934;6.958;2023-02-01T02:39:59;6.00;99.50
3678;DHT22;1855;50.934;6.958;2023-02-01T02:42:36;6.10;99.80
3678;DHT22;1855;50.934;6.958;2023-02-01T02:45:28;6.10;99.40
3678;DHT22;1855;50.934;6.958;2023-02-01T02:48:19;6.10;99.10
3678;DHT22;1855;50.934;6.958;2023-02-01T02:50:52;6.20;99.20
3678;DHT22;1855;50.934;6.958;2023-02-01T02:53:47;6.20;99.00
3678;DHT22;1855;50.934;6.958;2023-02-01T02:56:34;6.20;98.80
3678;DHT22;1855;50.934;6.958;2023-02-01T02:59:21;6.20;98.70
3678;DHT22;1855;50.934;6.958;2023-02-01T03:02:07;6.20;98.90
3678;DHT22;1855;50.934;6.958;2023-02-01T03:04:52;6.20;99.10
3678;DHT22;1855;50.934;6.958;2023-02-01T03:07:52;6.20;99.30
3678;DHT22;1855;50.934;6.958;2023-02-01T03:10:26;6.20;99.40
3678;DHT22;1855;50.934;6.958;2023-02-01T03:13:01;6.20;99.70
3678;DHT22;1855;50.934;6.958;2023-02-01T03:15:33;6.20;99.80
3678;DHT22;1855;50.934;6.958;2023-02-01T03:18:03;6.20;99.90
3678;DHT22;1855;50.934;6.958;2023-02-01T03:20:32;6.20;99.90
3678;DHT22;1855;50.934;6.958;2023-02-01T03:23:00;6.20;99.90
3678;DHT22;1855;50.934;6.958;2023-02-01T03:25:30;6.20;99.90
3678;DHT22;1855;50.934;6.958;2023-02-01T03:28:02;6.20;99.90
3678;DHT22;1855;50.934;6.958;2023-02-01T03:30:32;6.20;99.90
3678;DHT22;1855;50.934;6.958;2023-02-01T03:33:04;6.20;99.90
3678;DHT22;1855;50.934;6.958;2023-02-01T03:35:40;6.30;99.90
3678;DHT22;1855;50.934;6.958;2023-02-01T03:38:18;6.30;99.90
3678;DHT22;1855;50.934;6.958;2023-02-01T03:40:50;6.30;99.90
3678;DHT22;1855;50.934;6.958;2023-02-01T03:43:19;6.30;99.90
3678;DHT22;1855;50.934;6.958;2023-02-01T03:45:50;6.20;99.90
3678;DHT22;1855;50.934;6.958;2023-02-01T03:48:19;6.20;99.90
3678;DHT22;1855;50.934;6.958;2023-02-01T03:50:51;6.20;99.90
3678;DHT22;1855;50.934;6.958;2023-02-01T03:53:22;6.10;99.90
3678;DHT22;1855;50.934;6.958;2023-02-01T03:55:50;6.10;99.90
3678;DHT22;1855;50.934;6.958;2023-02-01T03:58:19;6.10;99.90
3678;DHT22;1855;50.934;6.958;2023-02-01T04:00:51;6.00;99.90
3678;DHT22;1855;50.934;6.958;2023-02-01T04:03:19;6.00;99.90
3678;DHT22;1855;50.934;6.958;2023-02-01T04:05:47;5.90;99.90
3678;DHT22;1855;50.934;6.958;2023-02-01T04:08:13;5.90;99.90
3678;DHT22;1855;50.934;6.958;2023-02-01T04:10:42;6.00;99.90
3678;DHT22;1855;50.934;6.958;2023-02-01T04:13:09;6.00;99.90
3678;DHT22;1855;50.934;6.958;2023-02-01T04:15:36;6.00;99.90
3678;DHT22;1855;50.934;6.958;2023-02-01T04:18:03;6.10;99.40
3678;DHT22;1855;50.934;6.958;2023-02-01T04:20:29;6.20;99.30
3678;DHT22;1855;50.934;6.958;2023-02-01T04:22:56;6.20;98.90
3678;DHT22;1855;50.934;6.958;2023-02-01T04:25:23;6.20;98.80
3678;DHT22;1855;50.934;6.958;2023-02-01T04:27:51;6.20;98.90
3678;DHT22;1855;50.934;6.958;2023-02-01T04:30:18;6.20;99.20
3678;DHT22;1855;50.934;6.958;2023-02-01T04:32:45;6.20;99.00
3678;DHT22;1855;50.934;6.958;2023-02-01T04:35:12;6.20;98.80
3678;DHT22;1855;50.934;6.958;2023-02-01T04:37:38;6.20;98.90
3678;DHT22;1855;50.934;6.958;2023-02-01T04:40:06;6.20;98.80
3678;DHT22;1855;50.934;6.958;2023-02-01T04:42:33;6.20;98.90
3678;DHT22;1855;50.934;6.958;2023-02-01T04:45:01;6.10;98.80
3678;DHT22;1855;50.934;6.958;2023-02-01T04:47:28;6.00;99.20
3678;DHT22;1855;50.934;6.958;2023-02-01T04:49:56;6.00;99.30
3678;DHT22;1855;50.934;6.958;2023-02-01T04:52:23;5.90;99.50
3678;DHT22;1855;50.934;6.958;2023-02-01T04:54:50;5.80;99.80
3678;DHT22;1855;50.934;6.958;2023-02-01T04:57:19;5.70;99.90
3678;DHT22;1855;50.934;6.958;2023-02-01T04:59:46;5.70;99.90
3678;DHT22;1855;50.934;6.958;2023-02-01T05:02:14;5.70;99.80
3678;DHT22;1855;50.934;6.958;2023-02-01T05:04:41;5.70;99.80
3678;DHT22;1855;50.934;6.958;2023-02-01T05:07:07;5.70;99.80
3678;DHT22;1855;50.934;6.958;2023-02-01T05:09:34;5.60;99.90
3678;DHT22;1855;50.934;6.958;2023-02-01T05:12:01;5.60;99.90
3678;DHT22;1855;50.934;6.958;2023-02-01T05:14:45;5.50;99.90
3678;DHT22;1855;50.934;6.958;2023-02-01T05:17:20;5.50;99.90
3678;DHT22;1855;50.934;6.958;2023-02-01T05:19:47;5.50;99.90
3678;DHT22;1855;50.934;6.958;2023-02-01T05:22:13;5.60;99.60
3678;DHT22;1855;50.934;6.958;2023-02-01T05:24:40;5.60;99.40
3678;DHT22;1855;50.934;6.958;2023-02-01T05:27:07;5.60;99.10
3678;DHT22;1855;50.934;6.958;2023-02-01T05:29:33;5.60;99.10
3678;DHT22;1855;50.934;6.958;2023-02-01T05:32:00;5.50;99.00
3678;DHT22;1855;50.934;6.958;2023-02-01T05:34:28;5.40;99.50
3678;DHT22;1855;50.934;6.958;2023-02-01T05:36:55;5.40;99.50
3678;DHT22;1855;50.934;6.958;2023-02-01T05:39:22;5.40;99.30
3678;DHT22;1855;50.934;6.958;2023-02-01T05:41:49;5.40;99.30
3678;DHT22;1855;50.934;6.958;2023-02-01T05:44:15;5.40;99.30
3678;DHT22;1855;50.934;6.958;2023-02-01T05:46:42;5.40;99.10
3678;DHT22;1855;50.934;6.958;2023-02-01T05:49:09;5.40;99.20
3678;DHT22;1855;50.934;6.958;2023-02-01T05:51:37;5.40;99.20
3678;DHT22;1855;50.934;6.958;2023-02-01T05:54:04;5.40;98.90
3678;DHT22;1855;50.934;6.958;2023-02-01T05:56:30;5.40;99.00
3678;DHT22;1855;50.934;6.958;2023-02-01T05:58:57;5.30;99.20
3678;DHT22;1855;50.934;6.958;2023-02-01T06:01:25;5.30;99.40
3678;DHT22;1855;50.934;6.958;2023-02-01T06:03:51;5.20;99.90
3678;DHT22;1855;50.934;6.958;2023-02-01T06:06:18;5.20;99.60
3678;DHT22;1855;50.934;6.958;2023-02-01T06:08:46;5.20;99.50
3678;DHT22;1855;50.934;6.958;2023-02-01T06:11:13;5.20;99.60
3678;DHT22;1855;50.934;6.958;2023-02-01T06:13:40;5.20;99.50
3678;DHT22;1855;50.934;6.958;2023-02-01T06:16:07;5.20;99.50
3678;DHT22;1855;50.934;6.958;2023-02-01T06:18:34;5.20;99.40
3678;DHT22;1855;50.934;6.958;2023-02-01T06:21:01;5.20;99.40
3678;DHT22;1855;50.934;6.958;2023-02-01T06:23:28;5.20;99.40
3678;DHT22;1855;50.934;6.958;2023-02-01T06:26:00;5.10;99.60
3678;DHT22;1855;50.934;6.958;2023-02-01T06:28:28;5.10;99.80
3678;DHT22;1855;50.934;6.958;2023-02-01T06:30:55;5.10;99.60
3678;DHT22;1855;50.934;6.958;2023-02-01T06:33:23;5.10;99.60
3678;DHT22;1855;50.934;6.958;2023-02-01T06:35:56;5.10;99.80
3678;DHT22;1855;50.934;6.958;2023-02-01T06:38:23;5.10;99.80
3678;DHT22;1855;50.934;6.958;2023-02-01T06:40:52;5.10;99.80
3678;DHT22;1855;50.934;6.958;2023-02-01T06:43:20;5.10;99.90
3678;DHT22;1855;50.934;6.958;2023-02-01T06:45:47;5.10;99.90
3678;DHT22;1855;50.934;6.958;2023-02-01T06:48:14;5.10;99.90
3678;DHT22;1855;50.934;6.958;2023-02-01T06:50:41;5.20;99.90
3678;DHT22;1855;50.934;6.958;2023-02-01T06:53:08;5.20;99.60
3678;DHT22;1855;50.934;6.958;2023-02-01T06:55:35;5.30;99.50
3678;DHT22;1855;50.934;6.958;2023-02-01T06:58:02;5.40;99.30
3678;DHT22;1855;50.934;6.958;2023-02-01T07:00:30;5.40;99.20
3678;DHT22;1855;50.934;6.958;2023-02-01T07:02:58;5.50;99.20
3678;DHT22;1855;50.934;6.958;2023-02-01T07:05:25;5.50;99.40
3678;DHT22;1855;50.934;6.958;2023-02-01T07:07:52;5.50;99.00
3678;DHT22;1855;50.934;6.958;2023-02-01T07:10:18;5.60;99.00
3678;DHT22;1855;50.934;6.958;2023-02-01T07:12:45;5.60;99.00
3678;DHT22;1855;50.934;6.958;2023-02-01T07:15:12;5.60;98.80
3678;DHT22;1855;50.934;6.958;2023-02-01T07:17:40;5.60;98.60
3678;DHT22;1855;50.934;6.958;2023-02-01T07:20:08;5.70;98.60
3678;DHT22;1855;50.934;6.958;2023-02-01T07:22:35;5.70;98.70
3678;DHT22;1855;50.934;6.958;2023-02-01T07:25:02;5.70;98.60
3678;DHT22;1855;50.934;6.958;2023-02-01T07:27:28;5.70;98.40
3678;DHT22;1855;50.934;6.958;2023-02-01T07:29:55;5.70;98.50
3678;DHT22;1855;50.934;6.958;2023-02-01T07:32:22;5.70;98.40
3678;DHT22;1855;50.934;6.958;2023-02-01T07:34:50;5.70;98.60
3678;DHT22;1855;50.934;6.958;2023-02-01T07:37:16;5.70;98.50
3678;DHT22;1855;50.934;6.958;2023-02-01T07:39:43;5.70;98.50
3678;DHT22;1855;50.934;6.958;2023-02-01T07:42:10;5.70;98.50
3678;DHT22;1855;50.934;6.958;2023-02-01T07:44:37;5.80;98.50
3678;DHT22;1855;50.934;6.958;2023-02-01T07:47:04;5.80;98.50
3678;DHT22;1855;50.934;6.958;2023-02-01T07:49:30;5.80;98.20
3678;DHT22;1855;50.934;6.958;2023-02-01T07:51:58;5.80;98.30
3678;DHT22;1855;50.934;6.958;2023-02-01T07:54:25;5.70;98.30
3678;DHT22;1855;50.934;6.958;2023-02-01T07:56:52;5.70;98.40
3678;DHT22;1855;50.934;6.958;2023-02-01T07:59:19;5.70;98.60
3678;DHT22;1855;50.934;6.958;2023-02-01T08:01:45;5.60;98.50
3678;DHT22;1855;50.934;6.958;2023-02-01T08:04:12;5.70;98.50
3678;DHT22;1855;50.934;6.958;2023-02-01T08:06:39;5.70;98.50
3678;DHT22;1855;50.934;6.958;2023-02-01T08:09:08;5.70;98.40
3678;DHT22;1855;50.934;6.958;2023-02-01T08:11:36;5.70;98.30
3678;DHT22;1855;50.934;6.958;2023-02-01T08:14:03;5.70;98.20
3678;DHT22;1855;50.934;6.958;2023-02-01T08:16:33;5.80;98.10
3678;DHT22;1855;50.934;6.958;2023-02-01T08:19:02;5.80;98.00
3678;DHT22;1855;50.934;6.958;2023-02-01T08:21:29;5.80;98.00
3678;DHT22;1855;50.934;6.958;2023-02-01T08:24:03;5.80;98.10
3678;DHT22;1855;50.934;6.958;2023-02-01T08:26:31;5.80;98.00
3678;DHT22;1855;50.934;6.958;2023-02-01T08:29:00;5.80;98.10
3678;DHT22;1855;50.934;6.958;2023-02-01T08:31:28;5.80;98.10
3678;DHT22;1855;50.934;6.958;2023-02-01T08:33:57;5.80;97.80
3678;DHT22;1855;50.934;6.958;2023-02-01T08:36:26;5.80;97.80
3678;DHT22;1855;50.934;6.958;2023-02-01T08:38:53;5.80;97.70
3678;DHT22;1855;50.934;6.958;2023-02-01T08:41:22;5.80;97.70
3678;DHT22;1855;50.934;6.958;2023-02-01T08:43:51;5.90;97.80
3678;DHT22;1855;50.934;6.958;2023-02-01T08:46:19;5.90;97.60
3678;DHT22;1855;50.934;6.958;2023-02-01T08:48:47;6.00;97.30
3678;DHT22;1855;50.934;6.958;2023-02-01T08:51:15;6.00;97.10
3678;DHT22;1855;50.934;6.958;2023-02-01T08:53:42;6.10;97.00
3678;DHT22;1855;50.934;6.958;2023-02-01T08:56:10;6.10;97.00
3678;DHT22;1855;50.934;6.958;2023-02-01T08:58:37;6.20;96.50
3678;DHT22;1855;50.934;6.958;2023-02-01T09:01:07;6.30;96.20
3678;DHT22;1855;50.934;6.958;2023-02-01T09:03:34;6.40;96.10
3678;DHT22;1855;50.934;6.958;2023-02-01T09:06:01;6.50;95.50
3678;DHT22;1855;50.934;6.958;2023-02-01T09:08:28;6.60;95.00
3678;DHT22;1855;50.934;6.958;2023-02-01T09:10:59;6.60;94.50
3678;DHT22;1855;50.934;6.958;2023-02-01T09:13:26;6.70;94.30
3678;DHT22;1855;50.934;6.958;2023-02-01T09:15:53;6.80;94.30
3678;DHT22;1855;50.934;6.958;2023-02-01T09:18:22;6.90;93.90
3678;DHT22;1855;50.934;6.958;2023-02-01T09:20:48;6.90;93.70
3678;DHT22;1855;50.934;6.958;2023-02-01T09:23:15;7.00;93.40
3678;DHT22;1855;50.934;6.958;2023-02-01T09:25:42;7.20;92.90
3678;DHT22;1855;50.934;6.958;2023-02-01T09:28:09;7.10;92.80
3678;DHT22;1855;50.934;6.958;2023-02-01T09:30:36;7.10;93.00
3678;DHT22;1855;50.934;6.958;2023-02-01T09:33:03;7.00;93.30
3678;DHT22;1855;50.934;6.958;2023-02-01T09:35:33;6.90;93.80
3678;DHT22;1855;50.934;6.958;2023-02-01T09:37:59;6.90;93.60
3678;DHT22;1855;50.934;6.958;2023-02-01T09:40:26;6.90;93.50
3678;DHT22;1855;50.934;6.958;2023-02-01T09:43:06;6.90;93.50
3678;DHT22;1855;50.934;6.958;2023-02-01T09:45:43;6.90;93.30
3678;DHT22;1855;50.934;6.958;2023-02-01T09:48:15;7.10;92.80
3678;DHT22;1855;50.934;6.958;2023-02-01T09:50:48;7.20;92.20
3678;DHT22;1855;50.934;6.958;2023-02-01T09:53:20;7.30;92.30
3678;DHT22;1855;50.934;6.958;2023-02-01T09:55:49;7.50;91.90
3678;DHT22;1855;50.934;6.958;2023-02-01T09:58:22;7.70;91.20
3678;DHT22;1855;50.934;6.958;2023-02-01T10:00:52;7.70;90.80
3678;DHT22;1855;50.934;6.958;2023-02-01T10:03:19;7.60;91.10
3678;DHT22;1855;50.934;6.958;2023-02-01T10:09:11;7.50;91.30
3678;DHT22;1855;50.934;6.958;2023-02-01T10:11:49;7.20;92.20
3678;DHT22;1855;50.934;6.958;2023-02-01T10:14:41;7.10;92.40
3678;DHT22;1855;50.934;6.958;2023-02-01T10:17:20;7.10;92.50
3678;DHT22;1855;50.934;6.958;2023-02-01T10:19:57;7.20;92.50
3678;DHT22;1855;50.934;6.958;2023-02-01T10:22:38;7.30;92.40
3678;DHT22;1855;50.934;6.958;2023-02-01T10:25:14;7.40;91.80
3678;DHT22;1855;50.934;6.958;2023-02-01T10:27:43;7.40;91.60
3678;DHT22;1855;50.934;6.958;2023-02-01T10:30:19;7.60;91.30
3678;DHT22;1855;50.934;6.958;2023-02-01T10:32:47;7.80;90.80
3678;DHT22;1855;50.934;6.958;2023-02-01T10:35:17;8.10;89.90
3678;DHT22;1855;50.934;6.958;2023-02-01T10:37:45;8.00;88.50
3678;DHT22;1855;50.934;6.958;2023-02-01T10:40:19;7.90;89.90
3678;DHT22;1855;50.934;6.958;2023-02-01T10:42:47;8.10;89.60
3678;DHT22;1855;50.934;6.958;2023-02-01T10:45:17;8.30;87.60
3678;DHT22;1855;50.934;6.958;2023-02-01T10:47:44;8.50;85.70
3678;DHT22;1855;50.934;6.958;2023-02-01T10:50:17;8.60;84.80
3678;DHT22;1855;50.934;6.958;2023-02-01T10:52:48;9.00;82.50
3678;DHT22;1855;50.934;6.958;2023-02-01T10:55:32;9.10;82.40
3678;DHT22;1855;50.934;6.958;2023-02-01T10:58:00;9.50;79.20
3678;DHT22;1855;50.934;6.958;2023-02-01T11:00:28;9.30;78.10
3678;DHT22;1855;50.934;6.958;2023-02-01T11:03:00;9.00;80.80
3678;DHT22;1855;50.934;6.958;2023-02-01T11:05:27;8.90;81.40
3678;DHT22;1855;50.934;6.958;2023-02-01T11:07:54;8.90;80.30
3678;DHT22;1855;50.934;6.958;2023-02-01T11:10:40;9.00;81.10
3678;DHT22;1855;50.934;6.958;2023-02-01T11:13:13;8.90;80.80
3678;DHT22;1855;50.934;6.958;2023-02-01T11:15:43;8.80;82.10
3678;DHT22;1855;50.934;6.958;2023-02-01T11:18:16;8.80;82.30
3678;DHT22;1855;50.934;6.958;2023-02-01T11:20:45;8.80;82.40
3678;DHT22;1855;50.934;6.958;2023-02-01T11:23:16;8.60;82.40
3678;DHT22;1855;50.934;6.958;2023-02-01T11:25:49;8.50;83.60
3678;DHT22;1855;50.934;6.958;2023-02-01T11:28:18;8.60;83.60
3678;DHT22;1855;50.934;6.958;2023-02-01T11:30:47;8.60;83.50
3678;DHT22;1855;50.934;6.958;2023-02-01T11:33:17;8.60;82.90
3678;DHT22;1855;50.934;6.958;2023-02-01T11:35:45;8.80;82.50
3678;DHT22;1855;50.934;6.958;2023-02-01T11:38:22;8.90;82.10
3678;DHT22;1855;50.934;6.958;2023-02-01T11:40:52;8.90;80.60
3678;DHT22;1855;50.934;6.958;2023-02-01T11:43:24;9.00;80.10
3678;DHT22;1855;50.934;6.958;2023-02-01T11:45:55;8.90;81.00
3678;DHT22;1855;50.934;6.958;2023-02-01T11:48:24;9.10;80.60
3678;DHT22;1855;50.934;6.958;2023-02-01T11:51:08;9.10;79.00
3678;DHT22;1855;50.934;6.958;2023-02-01T11:53:52;8.90;79.20
3678;DHT22;1855;50.934;6.958;2023-02-01T11:56:28;8.60;82.20
3678;DHT22;1855;50.934;6.958;2023-02-01T11:59:18;8.40;83.50
3678;DHT22;1855;50.934;6.958;2023-02-01T12:02:09;8.30;84.00
3678;DHT22;1855;50.934;6.958;2023-02-01T12:05:04;8.10;85.10
3678;DHT22;1855;50.934;6.958;2023-02-01T12:07:46;8.20;85.80
3678;DHT22;1855;50.934;6.958;2023-02-01T12:10:25;8.20;84.30
3678;DHT22;1855;50.934;6.958;2023-02-01T12:13:06;8.30;83.90
3678;DHT22;1855;50.934;6.958;2023-02-01T12:15:44;8.10;84.30
3678;DHT22;1855;50.934;6.958;2023-02-01T12:18:34;8.00;84.90
3678;DHT22;1855;50.934;6.958;2023-02-01T12:21:26;8.00;86.20
3678;DHT22;1855;50.934;6.958;2023-02-01T12:26:50;7.90;87.50
3678;DHT22;1855;50.934;6.958;2023-02-01T12:29:35;7.90;86.30
3678;DHT22;1855;50.934;6.958;2023-02-01T12:32:20;7.90;87.10
3678;DHT22;1855;50.934;6.958;2023-02-01T12:35:06;8.00;86.70
3678;DHT22;1855;50.934;6.958;2023-02-01T12:37:51;8.00;86.40
3678;DHT22;1855;50.934;6.958;2023-02-01T12:40:28;8.00;85.60
3678;DHT22;1855;50.934;6.958;2023-02-01T12:43:03;8.10;85.50
3678;DHT22;1855;50.934;6.958;2023-02-01T12:45:36;8.20;85.20
3678;DHT22;1855;50.934;6.958;2023-02-01T12:48:19;8.20;85.30
3678;DHT22;1855;50.934;6.958;2023-02-01T12:50:52;8.20;85.00
3678;DHT22;1855;50.934;6.958;2023-02-01T12:53:23;8.30;84.70
3678;DHT22;1855;50.934;6.958;2023-02-01T12:55:53;8.30;84.10
3678;DHT22;1855;50.934;6.958;2023-02-01T12:58:24;8.20;85.40
3678;DHT22;1855;50.934;6.958;2023-02-01T13:00:58;8.10;85.80
3678;DHT22;1855;50.934;6.958;2023-02-01T13:03:34;8.00;86.40
3678;DHT22;1855;50.934;6.958;2023-02-01T13:06:07;7.90;86.90
3678;DHT22;1855;50.934;6.958;2023-02-01T13:08:40;7.90;87.60
3678;DHT22;1855;50.934;6.958;2023-02-01T13:11:11;7.90;87.30
3678;DHT22;1855;50.934;6.958;2023-02-01T13:13:46;7.80;87.60
3678;DHT22;1855;50.934;6.958;2023-02-01T13:16:18;7.80;88.40
3678;DHT22;1855;50.934;6.958;2023-02-01T13:18:55;7.80;88.20
3678;DHT22;1855;50.934;6.958;2023-02-01T13:21:29;7.80;88.70
3678;DHT22;1855;50.934;6.958;2023-02-01T13:23:58;7.70;89.00
3678;DHT22;1855;50.934;6.958;2023-02-01T13:26:25;7.70;88.90
3678;DHT22;1855;50.934;6.958;2023-02-01T13:28:53;7.70;88.30
3678;DHT22;1855;50.934;6.958;2023-02-01T13:34:40;7.70;89.90
3678;DHT22;1855;50.934;6.958;2023-02-01T13:37:24;7.70;91.00
3678;DHT22;1855;50.934;6.958;2023-02-01T13:40:09;7.60;91.90
3678;DHT22;1855;50.934;6.958;2023-02-01T13:42:46;7.60;91.50
3678;DHT22;1855;50.934;6.958;2023-02-01T13:45:15;7.60;91.70
3678;DHT22;1855;50.934;6.958;2023-02-01T13:47:46;7.50;92.60
3678;DHT22;1855;50.934;6.958;2023-02-01T13:50:22;7.50;92.80
3678;DHT22;1855;50.934;6.958;2023-02-01T13:52:53;7.40;92.80
3678;DHT22;1855;50.934;6.958;2023-02-01T13:55:29;7.40;93.20
3678;DHT22;1855;50.934;6.958;2023-02-01T13:58:14;7.50;92.90
3678;DHT22;1855;50.934;6.958;2023-02-01T14:00:42;7.50;92.80
3678;DHT22;1855;50.934;6.958;2023-02-01T14:03:16;7.60;91.70
3678;DHT22;1855;50.934;6.958;2023-02-01T14:06:16;7.70;91.40
3678;DHT22;1855;50.934;6.958;2023-02-01T14:11:35;7.80;90.80
3678;DHT22;1855;50.934;6.958;2023-02-01T14:17:36;7.90;89.60
3678;DHT22;1855;50.934;6.958;2023-02-01T14:23:26;7.90;88.80
3678;DHT22;1855;50.934;6.958;2023-02-01T14:26:13;8.00;87.80
3678;DHT22;1855;50.934;6.958;2023-02-01T14:28:55;8.00;87.60
3678;DHT22;1855;50.934;6.958;2023-02-01T14:31:59;8.00;87.60
3678;DHT22;1855;50.934;6.958;2023-02-01T14:34:34;8.10;87.00
3678;DHT22;1855;50.934;6.958;2023-02-01T14:37:05;8.10;86.70
3678;DHT22;1855;50.934;6.958;2023-02-01T14:39:38;8.10;86.40
3678;DHT22;1855;50.934;6.958;2023-02-01T14:42:20;8.10;85.30
3678;DHT22;1855;50.934;6.958;2023-02-01T14:44:49;8.10;85.60
3678;DHT22;1855;50.934;6.958;2023-02-01T14:47:32;8.10;86.20
3678;DHT22;1855;50.934;6.958;2023-02-01T14:50:25;8.10;85.70
3678;DHT22;1855;50.934;6.958;2023-02-01T14:53:10;8.10;85.20
3678;DHT22;1855;50.934;6.958;2023-02-01T14:55:40;8.10;85.30
3678;DHT22;1855;50.934;6.958;2023-02-01T14:58:16;8.10;85.80
3678;DHT22;1855;50.934;6.958;2023-02-01T15:00:53;8.10;85.50
3678;DHT22;1855;50.934;6.958;2023-02-01T15:03:34;8.10;85.00
3678;DHT22;1855;50.934;6.958;2023-02-01T15:06:02;8.10;84.80
3678;DHT22;1855;50.934;6.958;2023-02-01T15:08:33;8.10;84.80
3678;DHT22;1855;50.934;6.958;2023-02-01T15:11:08;8.10;84.40
3678;DHT22;1855;50.934;6.958;2023-02-01T15:13:39;8.10;84.30
3678;DHT22;1855;50.934;6.958;2023-02-01T15:16:11;8.10;84.90
3678;DHT22;1855;50.934;6.958;2023-02-01T15:18:38;8.20;84.60
3678;DHT22;1855;50.934;6.958;2023-02-01T15:21:06;8.20;83.70
3678;DHT22;1855;50.934;6.958;2023-02-01T15:23:40;8.20;84.00
3678;DHT22;1855;50.934;6.958;2023-02-01T15:26:08;8.20;83.60
3678;DHT22;1855;50.934;6.958;2023-02-01T15:28:35;8.20;83.80
3678;DHT22;1855;50.934;6.958;2023-02-01T15:31:04;8.20;83.70
3678;DHT22;1855;50.934;6.958;2023-02-01T15:33:31;8.20;84.20
3678;DHT22;1855;50.934;6.958;2023-02-01T15:36:08;8.20;83.50
3678;DHT22;1855;50.934;6.958;2023-02-01T15:38:39;8.20;83.60
3678;DHT22;1855;50.934;6.958;2023-02-01T15:41:13;8.20;83.90
3678;DHT22;1855;50.934;6.958;2023-02-01T15:43:43;8.10;84.10
3678;DHT22;1855;50.934;6.958;2023-02-01T15:46:13;8.20;84.20
3678;DHT22;1855;50.934;6.958;2023-02-01T15:48:44;8.20;84.40
3678;DHT22;1855;50.934;6.958;2023-02-01T15:51:13;8.20;84.90
3678;DHT22;1855;50.934;6.958;2023-02-01T15:53:44;8.20;84.90
3678;DHT22;1855;50.934;6.958;2023-02-01T15:56:14;8.10;84.50
3678;DHT22;1855;50.934;6.958;2023-02-01T15:58:43;8.10;84.80
3678;DHT22;1855;50.934;6.958;2023-02-01T16:01:12;8.10;85.50
3678;DHT22;1855;50.934;6.958;2023-02-01T16:03:41;8.10;84.70
3678;DHT22;1855;50.934;6.958;2023-02-01T16:06:10;8.10;84.50
3678;DHT22;1855;50.934;6.958;2023-02-01T16:08:37;8.10;84.70
3678;DHT22;1855;50.934;6.958;2023-02-01T16:11:24;8.10;84.90
3678;DHT22;1855;50.934;6.958;2023-02-01T16:13:53;8.20;85.30
3678;DHT22;1855;50.934;6.958;2023-02-01T16:16:20;8.10;88.40
3678;DHT22;1855;50.934;6.958;2023-02-01T16:18:47;8.00;91.30
3678;DHT22;1855;50.934;6.958;2023-02-01T16:21:14;7.80;93.90
3678;DHT22;1855;50.934;6.958;2023-02-01T16:23:40;7.50;95.20
3678;DHT22;1855;50.934;6.958;2023-02-01T16:26:07;7.40;97.40
3678;DHT22;1855;50.934;6.958;2023-02-01T16:28:35;7.20;97.90
3678;DHT22;1855;50.934;6.958;2023-02-01T16:31:02;7.10;99.40
3678;DHT22;1855;50.934;6.958;2023-02-01T16:33:29;7.10;99.90
3678;DHT22;1855;50.934;6.958;2023-02-01T16:35:56;6.90;99.90
3678;DHT22;1855;50.934;6.958;2023-02-01T16:38:25;6.90;99.90
3678;DHT22;1855;50.934;6.958;2023-02-01T16:40:52;6.80;99.90
3678;DHT22;1855;50.934;6.958;2023-02-01T16:43:21;6.80;99.90
3678;DHT22;1855;50.934;6.958;2023-02-01T16:45:52;6.70;99.90
3678;DHT22;1855;50.934;6.958;2023-02-01T16:48:23;6.70;99.90
3678;DHT22;1855;50.934;6.958;2023-02-01T16:50:53;6.70;99.90
3678;DHT22;1855;50.934;6.958;2023-02-01T16:53:22;6.70;99.90
3678;DHT22;1855;50.934;6.958;2023-02-01T16:55:49;6.70;99.90
3678;DHT22;1855;50.934;6.958;2023-02-01T16:58:18;6.70;99.90
3678;DHT22;1855;50.934;6.958;2023-02-01T17:00:45;6.70;99.90
3678;DHT22;1855;50.934;6.958;2023-02-01T17:03:14;6.70;99.90
3678;DHT22;1855;50.934;6.958;2023-02-01T17:05:43;6.70;99.90
3678;DHT22;1855;50.934;6.958;2023-02-01T17:08:13;6.70;99.90